Time;durP1;ratioP1;P1;durP2;ratioP2;P2;SDS_P1;SDS_P2;PMS_P1;PMS_P2;Temp;Humidity;BMP_temperature;BMP_pressure;BME280_temperature;BME280_humidity;BME280_pressure;Samples;Min_cycle;Max_cycle;Signal;HPM_P1;HPM_P2
2023/08/02 00:01:06;;;;;;;5.22;1.80;;;16.20;86.30;;;;;;5014279;28;20281;-73
2023/08/02 00:03:33;;;;;;;6.03;1.70;;;16.20;86.20;;;;;;5022556;28;20058;-73
2023/08/02 00:06:00;;;;;;;5.57;2.03;;;16.20;86.20;;;;;;5013627;28;20639;-73
2023/08/02 00:08:27;;;;;;;5.32;2.05;;;16.10;86.30;;;;;;5014880;28;20149;-73
2023/08/02 00:10:55;;;;;;;5.03;1.87;;;16.10;86.30;;;;;;5014544;28;20548;-73
2023/08/02 00:13:23;;;;;;;9.98;2.50;;;16.10;86.20;;;;;;5013353;28;20755;-73
2023/08/02 00:15:51;;;;;;;5.90;2.03;;;16.10;86.30;;;;;;5013569;28;20043;-73
2023/08/02 00:18:18;;;;;;;7.47;2.22;;;16.10;86.30;;;;;;5014743;28;20503;-73
2023/08/02 00:20:45;;;;;;;6.65;2.25;;;16.10;86.20;;;;;;5013019;28;20149;-74
2023/08/02 00:23:12;;;;;;;6.27;2.17;;;16.10;86.20;;;;;;5013312;28;20053;-73
2023/08/02 00:25:39;;;;;;;5.93;2.00;;;16.10;86.20;;;;;;5014679;28;20277;-73
2023/08/02 00:28:06;;;;;;;8.18;2.30;;;16.10;86.20;;;;;;5013161;28;20173;-73
2023/08/02 00:30:44;;;;;;;7.43;2.22;;;16.10;86.20;;;;;;4996780;28;20070;-73
2023/08/02 00:33:12;;;;;;;6.88;2.30;;;16.10;86.20;;;;;;5014881;28;20642;-73
2023/08/02 00:35:43;;;;;;;6.50;2.50;;;16.00;86.20;;;;;;5013589;28;20050;-73
2023/08/02 00:38:10;;;;;;;6.90;2.22;;;16.10;86.20;;;;;;5011719;28;20340;-73
2023/08/02 00:40:38;;;;;;;7.10;2.47;;;16.10;86.20;;;;;;5013347;28;20049;-73
2023/08/02 00:43:05;;;;;;;5.45;2.13;;;16.10;86.20;;;;;;5029825;28;20138;-73
2023/08/02 00:45:34;;;;;;;5.50;2.50;;;16.00;86.20;;;;;;5013137;28;20537;-73
2023/08/02 00:48:01;;;;;;;6.30;2.40;;;16.00;86.30;;;;;;5014486;28;20046;-73
2023/08/02 00:50:30;;;;;;;8.48;2.50;;;16.00;86.30;;;;;;4996649;28;20331;-73
2023/08/02 00:52:57;;;;;;;6.38;2.40;;;16.00;86.30;;;;;;5012762;28;20442;-73
2023/08/02 00:55:24;;;;;;;6.88;2.50;;;16.00;86.40;;;;;;4995617;28;20058;-73
2023/08/02 00:57:51;;;;;;;7.25;2.63;;;16.00;86.40;;;;;;5013070;28;20120;-73
2023/08/02 01:00:18;;;;;;;7.30;2.40;;;16.00;86.50;;;;;;5026398;28;20070;-73
2023/08/02 01:02:46;;;;;;;9.80;2.88;;;16.00;86.50;;;;;;5009497;28;20289;-73
2023/08/02 01:05:13;;;;;;;9.02;2.78;;;16.00;86.60;;;;;;4993986;28;20054;-73
2023/08/02 01:07:46;;;;;;;6.50;2.75;;;16.00;86.60;;;;;;5011787;28;20575;-74
2023/08/02 01:10:20;;;;;;;8.18;2.78;;;16.00;86.70;;;;;;5009959;28;20086;-73
2023/08/02 01:12:54;;;;;;;8.17;2.80;;;16.00;86.60;;;;;;4991487;28;20149;-73
2023/08/02 01:15:21;;;;;;;8.55;2.95;;;16.00;86.60;;;;;;5009690;28;21229;-73
2023/08/02 01:17:53;;;;;;;7.93;2.55;;;16.00;86.80;;;;;;5009715;28;20598;-73
2023/08/02 01:20:21;;;;;;;6.07;2.80;;;16.00;86.70;;;;;;5010539;28;20539;-73
2023/08/02 01:22:48;;;;;;;7.78;2.60;;;16.00;86.70;;;;;;5009104;28;20054;-73
2023/08/02 01:25:15;;;;;;;9.13;2.70;;;16.00;86.70;;;;;;5009594;28;20141;-73
2023/08/02 01:27:48;;;;;;;7.53;2.85;;;16.00;86.70;;;;;;5010616;28;20378;-74
2023/08/02 01:30:17;;;;;;;8.10;2.60;;;16.00;86.70;;;;;;4991532;28;20056;-73
2023/08/02 01:32:44;;;;;;;8.40;2.60;;;16.00;86.70;;;;;;5010577;28;20530;-74
2023/08/02 01:35:12;;;;;;;7.57;2.90;;;16.00;86.70;;;;;;5009173;28;20058;-73
2023/08/02 01:37:42;;;;;;;9.10;2.87;;;16.00;86.60;;;;;;5008650;28;20528;-74
2023/08/02 01:40:10;;;;;;;8.00;2.78;;;16.00;86.60;;;;;;5010324;28;20304;-74
2023/08/02 01:42:37;;;;;;;8.45;2.90;;;15.90;86.60;;;;;;5008788;28;20137;-73
2023/08/02 01:45:05;;;;;;;8.80;2.40;;;16.00;86.60;;;;;;5009157;28;20161;-73
2023/08/02 01:47:32;;;;;;;5.50;2.53;;;16.00;86.60;;;;;;5007462;28;20093;-73
2023/08/02 01:50:02;;;;;;;7.43;2.70;;;16.00;86.60;;;;;;5010145;28;20144;-74
2023/08/02 01:52:29;;;;;;;8.32;2.72;;;16.00;86.60;;;;;;5009235;28;20316;-73
2023/08/02 01:54:58;;;;;;;8.23;2.60;;;16.00;86.60;;;;;;5008364;28;20054;-73
2023/08/02 01:57:25;;;;;;;9.52;2.70;;;15.90;86.60;;;;;;4989383;28;20555;-73
2023/08/02 01:59:52;;;;;;;9.32;2.88;;;15.90;86.60;;;;;;5005923;28;20047;-73
2023/08/02 02:02:19;;;;;;;8.17;2.70;;;15.90;86.60;;;;;;5007197;28;20039;-73
2023/08/02 02:04:46;;;;;;;11.10;3.22;;;15.90;86.60;;;;;;4994861;28;20263;-74
2023/08/02 02:07:13;;;;;;;10.48;3.20;;;15.90;86.60;;;;;;5023341;28;20136;-73
2023/08/02 02:09:40;;;;;;;12.80;2.95;;;15.90;86.70;;;;;;5023539;28;20059;-73
2023/08/02 02:12:08;;;;;;;12.48;3.40;;;15.90;86.70;;;;;;5007900;28;20094;-73
2023/08/02 02:14:35;;;;;;;13.30;3.10;;;15.90;86.70;;;;;;5007016;28;20126;-74
2023/08/02 02:17:02;;;;;;;13.27;3.53;;;15.90;86.70;;;;;;4991372;28;20553;-73
2023/08/02 02:19:30;;;;;;;12.32;3.42;;;15.80;86.70;;;;;;4991926;28;20134;-73
2023/08/02 02:21:56;;;;;;;7.68;3.28;;;15.90;86.70;;;;;;4990007;28;20302;-73
2023/08/02 02:24:23;;;;;;;15.13;3.90;;;15.90;86.70;;;;;;5010000;28;20121;-73
2023/08/02 02:26:50;;;;;;;10.23;3.37;;;15.90;86.80;;;;;;5008348;28;20157;-73
2023/08/02 02:29:18;;;;;;;10.40;3.15;;;15.90;86.80;;;;;;5008113;28;20255;-74
2023/08/02 02:31:45;;;;;;;10.88;3.50;;;15.80;86.80;;;;;;5009072;28;20050;-73
2023/08/02 02:34:12;;;;;;;12.05;3.30;;;15.90;86.90;;;;;;5008313;28;20046;-74
2023/08/02 02:36:39;;;;;;;11.85;3.50;;;15.90;86.90;;;;;;5008216;28;20520;-73
2023/08/02 02:39:07;;;;;;;10.63;3.87;;;15.90;86.90;;;;;;4990118;28;20082;-73
2023/08/02 02:41:36;;;;;;;12.68;3.92;;;15.90;86.90;;;;;;4991592;28;20830;-73
2023/08/02 02:44:03;;;;;;;10.95;3.50;;;15.80;86.90;;;;;;5007925;28;20447;-73
2023/08/02 02:46:31;;;;;;;9.40;3.70;;;15.90;87.10;;;;;;5009342;28;20137;-73
2023/08/02 02:48:58;;;;;;;10.98;3.92;;;15.90;87.00;;;;;;5007500;28;20047;-73
2023/08/02 02:51:24;;;;;;;9.70;3.67;;;15.80;87.10;;;;;;5007877;28;20061;-73
2023/08/02 02:53:51;;;;;;;11.52;3.63;;;15.80;87.10;;;;;;5008378;28;20350;-73
2023/08/02 02:56:18;;;;;;;11.68;3.20;;;15.80;87.10;;;;;;5006777;28;20122;-73
2023/08/02 02:58:45;;;;;;;13.10;3.60;;;15.90;87.20;;;;;;5007453;28;20042;-73
2023/08/02 03:01:12;;;;;;;10.40;3.30;;;15.80;87.10;;;;;;5009191;28;20061;-73
2023/08/02 03:03:40;;;;;;;11.67;3.07;;;15.80;87.20;;;;;;5007997;28;20053;-73
2023/08/02 03:06:07;;;;;;;11.75;3.65;;;15.80;87.20;;;;;;4995714;28;20778;-73
2023/08/02 03:08:34;;;;;;;8.02;3.20;;;15.80;87.10;;;;;;5007512;28;20372;-74
2023/08/02 03:11:01;;;;;;;10.27;2.92;;;15.80;87.20;;;;;;5007365;28;20655;-73
2023/08/02 03:13:28;;;;;;;11.15;3.38;;;15.80;87.00;;;;;;5007125;28;20724;-73
2023/08/02 03:15:55;;;;;;;9.87;3.03;;;15.80;86.90;;;;;;5006227;28;20517;-73
2023/08/02 03:18:22;;;;;;;11.98;3.20;;;15.80;86.90;;;;;;5007532;28;20271;-73
2023/08/02 03:20:50;;;;;;;9.15;3.30;;;15.80;86.90;;;;;;5007598;28;20050;-73
2023/08/02 03:23:17;;;;;;;10.57;3.58;;;15.80;86.80;;;;;;5007961;28;20056;-73
2023/08/02 03:25:44;;;;;;;10.90;3.42;;;15.80;86.90;;;;;;5007677;28;20210;-73
2023/08/02 03:28:11;;;;;;;10.87;3.63;;;15.80;86.80;;;;;;5007002;28;20054;-73
2023/08/02 03:30:38;;;;;;;10.20;3.70;;;15.80;86.70;;;;;;5008115;28;20284;-73
2023/08/02 03:33:05;;;;;;;10.35;3.38;;;15.80;86.60;;;;;;5005634;28;20054;-73
2023/08/02 03:35:32;;;;;;;10.73;3.22;;;15.70;86.40;;;;;;5008569;28;20054;-73
2023/08/02 03:38:00;;;;;;;7.65;3.17;;;15.70;86.20;;;;;;4990549;28;20051;-73
2023/08/02 03:40:27;;;;;;;8.40;3.43;;;15.70;86.10;;;;;;5008017;28;20669;-73
2023/08/02 03:42:54;;;;;;;12.70;3.92;;;15.60;86.10;;;;;;5008668;28;20266;-73
2023/08/02 03:45:21;;;;;;;12.02;3.83;;;15.60;86.00;;;;;;5008460;28;20633;-73
2023/08/02 03:47:47;;;;;;;9.50;3.63;;;15.60;86.10;;;;;;5007362;28;20130;-74
2023/08/02 03:50:14;;;;;;;8.35;3.83;;;15.60;86.00;;;;;;5005292;28;20706;-74
2023/08/02 03:52:41;;;;;;;10.57;3.73;;;15.60;86.00;;;;;;5007184;28;20920;-73
2023/08/02 03:55:10;;;;;;;9.93;3.97;;;15.60;86.00;;;;;;4990451;28;20274;-73
2023/08/02 03:57:37;;;;;;;10.02;3.85;;;15.60;85.80;;;;;;5007226;28;20532;-74
2023/08/02 04:00:04;;;;;;;9.15;3.50;;;15.50;85.70;;;;;;5006908;28;20542;-73
2023/08/02 04:02:39;;;;;;;10.18;3.55;;;15.50;85.70;;;;;;5008586;28;20061;-73
2023/08/02 04:05:06;;;;;;;10.27;3.93;;;15.50;85.70;;;;;;5006750;28;20054;-73
2023/08/02 04:07:33;;;;;;;11.35;3.72;;;15.40;85.80;;;;;;5004971;28;20266;-74
2023/08/02 04:10:00;;;;;;;7.88;3.50;;;15.40;85.80;;;;;;5008138;28;20683;-73
2023/08/02 04:12:28;;;;;;;8.02;3.50;;;15.40;85.80;;;;;;5007972;28;20058;-73
2023/08/02 04:14:56;;;;;;;8.35;3.85;;;15.40;85.90;;;;;;5006975;28;20066;-74
2023/08/02 04:17:25;;;;;;;9.87;3.70;;;15.30;85.90;;;;;;5008018;28;20557;-73
2023/08/02 04:19:52;;;;;;;12.20;3.97;;;15.30;85.90;;;;;;5008101;28;20278;-73
2023/08/02 04:22:19;;;;;;;10.57;3.90;;;15.30;86.00;;;;;;5006492;28;20046;-73
2023/08/02 04:24:46;;;;;;;12.48;4.22;;;15.30;86.00;;;;;;5005173;28;20050;-73
2023/08/02 04:27:13;;;;;;;9.27;3.75;;;15.20;86.10;;;;;;5007148;28;20145;-73
2023/08/02 04:29:41;;;;;;;10.03;3.90;;;15.20;86.10;;;;;;5006625;28;20054;-73
2023/08/02 04:32:08;;;;;;;8.30;3.92;;;15.20;86.10;;;;;;4990270;28;20742;-73
2023/08/02 04:34:35;;;;;;;11.93;3.92;;;15.20;86.20;;;;;;5006477;28;20120;-73
2023/08/02 04:37:01;;;;;;;11.82;4.00;;;15.20;86.20;;;;;;5009321;28;20052;-73
2023/08/02 04:39:28;;;;;;;7.88;4.00;;;15.20;86.20;;;;;;5010122;28;20050;-73
2023/08/02 04:41:55;;;;;;;10.10;3.90;;;15.20;86.30;;;;;;5025064;28;20051;-73
2023/08/02 04:44:22;;;;;;;11.60;3.85;;;15.20;86.40;;;;;;5011529;28;20276;-73
2023/08/02 04:46:51;;;;;;;12.82;3.95;;;15.20;86.40;;;;;;5011692;28;20074;-73
2023/08/02 04:49:17;;;;;;;8.35;3.78;;;15.10;86.40;;;;;;5011027;28;20054;-73
2023/08/02 04:51:44;;;;;;;10.52;4.00;;;15.10;86.50;;;;;;5010915;28;20058;-74
2023/08/02 04:54:11;;;;;;;9.93;3.90;;;15.10;86.60;;;;;;5009753;28;20544;-74
2023/08/02 04:56:38;;;;;;;11.05;3.60;;;15.10;86.60;;;;;;5011466;28;20265;-73
2023/08/02 04:59:06;;;;;;;8.38;3.50;;;15.10;86.60;;;;;;5009236;28;20483;-74
2023/08/02 05:01:34;;;;;;;12.95;3.70;;;15.00;86.60;;;;;;5010756;28;20410;-73
2023/08/02 05:04:03;;;;;;;9.23;3.53;;;15.00;86.70;;;;;;5011528;28;20058;-73
2023/08/02 05:06:30;;;;;;;10.50;3.77;;;15.00;86.70;;;;;;5010219;28;20516;-73
2023/08/02 05:08:57;;;;;;;10.48;3.88;;;15.00;86.80;;;;;;5011216;28;20280;-73
2023/08/02 05:11:24;;;;;;;9.45;3.65;;;15.00;86.90;;;;;;5009830;28;20050;-73
2023/08/02 05:13:51;;;;;;;10.82;3.58;;;15.00;86.90;;;;;;5011120;28;21044;-73
2023/08/02 05:16:18;;;;;;;9.93;3.85;;;15.00;87.00;;;;;;5009773;28;20137;-73
2023/08/02 05:18:45;;;;;;;8.07;4.10;;;15.00;87.10;;;;;;5009791;28;20060;-73
2023/08/02 05:21:15;;;;;;;9.48;3.83;;;15.00;87.10;;;;;;5009282;28;20258;-73
2023/08/02 05:23:42;;;;;;;8.60;3.83;;;15.00;87.20;;;;;;5009374;28;20148;-73
2023/08/02 05:26:10;;;;;;;11.30;4.10;;;15.10;87.20;;;;;;5009434;28;20046;-74
2023/08/02 05:28:37;;;;;;;9.38;4.35;;;15.10;87.20;;;;;;5011165;28;20059;-73
2023/08/02 05:31:09;;;;;;;9.60;3.83;;;15.10;87.20;;;;;;5008501;28;20539;-73
2023/08/02 05:33:36;;;;;;;9.40;4.10;;;15.10;87.20;;;;;;5010682;28;20934;-73
2023/08/02 05:36:03;;;;;;;10.25;4.10;;;15.10;87.30;;;;;;5009065;28;20550;-73
2023/08/02 05:38:33;;;;;;;10.18;4.43;;;15.10;87.40;;;;;;5009527;28;20575;-73
2023/08/02 05:41:02;;;;;;;9.18;3.72;;;15.20;87.40;;;;;;5025429;28;20054;-73
2023/08/02 05:43:29;;;;;;;11.10;3.90;;;15.20;87.50;;;;;;5009247;28;20533;-73
2023/08/02 05:45:56;;;;;;;11.45;3.63;;;15.20;87.60;;;;;;5010152;28;20850;-73
2023/08/02 05:48:23;;;;;;;9.88;4.10;;;15.20;87.60;;;;;;5008901;28;20064;-74
2023/08/02 05:50:50;;;;;;;9.20;4.05;;;15.20;87.60;;;;;;5006815;28;20050;-73
2023/08/02 05:53:16;;;;;;;9.70;4.20;;;15.20;87.60;;;;;;5004323;28;20533;-73
2023/08/02 05:55:45;;;;;;;8.23;4.17;;;15.20;87.70;;;;;;5008524;28;20061;-73
2023/08/02 05:58:12;;;;;;;7.38;3.70;;;15.30;87.80;;;;;;5010069;28;20282;-73
2023/08/02 06:00:38;;;;;;;7.82;3.80;;;15.30;87.80;;;;;;5016306;28;20046;-73
2023/08/02 06:03:05;;;;;;;9.63;3.95;;;15.30;87.90;;;;;;5008701;28;20479;-73
2023/08/02 06:05:32;;;;;;;10.00;3.40;;;15.30;87.90;;;;;;5008651;28;20042;-73
2023/08/02 06:07:59;;;;;;;7.57;3.13;;;15.30;88.00;;;;;;5009791;28;20061;-73
2023/08/02 06:10:26;;;;;;;10.55;3.72;;;15.40;88.00;;;;;;5007517;28;20385;-73
2023/08/02 06:12:54;;;;;;;8.48;3.38;;;15.40;88.00;;;;;;5008619;28;20519;-73
2023/08/02 06:15:21;;;;;;;8.70;3.70;;;15.40;88.20;;;;;;5008981;28;20529;-73
2023/08/02 06:17:48;;;;;;;8.77;3.45;;;15.40;88.20;;;;;;5010067;28;20850;-73
2023/08/02 06:20:15;;;;;;;10.27;3.37;;;15.50;88.20;;;;;;5008926;28;20054;-73
2023/08/02 06:22:42;;;;;;;9.45;3.40;;;15.50;88.20;;;;;;5008960;28;21201;-73
2023/08/02 06:25:09;;;;;;;8.93;3.60;;;15.50;88.20;;;;;;4999707;28;20432;-73
2023/08/02 06:27:36;;;;;;;9.45;3.42;;;15.50;88.10;;;;;;5006876;28;20050;-73
2023/08/02 06:30:06;;;;;;;6.78;3.10;;;15.60;88.10;;;;;;5009935;28;20061;-74
2023/08/02 06:32:33;;;;;;;8.33;3.50;;;15.60;88.10;;;;;;5008570;28;20137;-73
2023/08/02 06:35:00;;;;;;;9.98;3.20;;;15.60;88.20;;;;;;5009540;28;20436;-73
2023/08/02 06:37:27;;;;;;;7.75;3.17;;;15.60;88.20;;;;;;5008512;28;20061;-73
2023/08/02 06:40:44;;;;;;;7.22;3.38;;;15.60;88.20;;;;;;5008968;28;20061;-73
2023/08/02 06:43:11;;;;;;;7.15;3.38;;;15.60;88.20;;;;;;5002418;28;20078;-73
2023/08/02 06:45:45;;;;;;;8.30;2.80;;;15.70;88.10;;;;;;5002891;28;20051;-73
2023/08/02 06:48:12;;;;;;;7.70;3.20;;;15.70;88.20;;;;;;5006480;28;20286;-73
2023/08/02 06:50:39;;;;;;;8.93;3.25;;;15.80;88.00;;;;;;5005929;28;20110;-73
2023/08/02 06:53:07;;;;;;;7.18;2.80;;;15.80;87.90;;;;;;5003314;28;20141;-73
2023/08/02 06:55:34;;;;;;;6.88;2.58;;;15.80;87.90;;;;;;5004296;28;20051;-73
2023/08/02 06:58:01;;;;;;;7.40;2.37;;;15.80;87.80;;;;;;4990490;28;20968;-73
2023/08/02 07:00:30;;;;;;;8.57;2.88;;;15.80;87.80;;;;;;5005594;28;20693;-73
2023/08/02 07:03:00;;;;;;;10.27;2.97;;;15.80;87.80;;;;;;5006911;28;20046;-73
2023/08/02 07:05:28;;;;;;;8.93;2.50;;;15.80;87.80;;;;;;5006528;28;20051;-73
2023/08/02 07:07:56;;;;;;;7.47;2.42;;;15.80;87.70;;;;;;5004276;28;20057;-73
2023/08/02 07:10:23;;;;;;;6.23;2.73;;;15.80;87.60;;;;;;5007104;28;20125;-73
2023/08/02 07:12:50;;;;;;;8.43;2.80;;;15.80;87.60;;;;;;5007557;28;20266;-74
2023/08/02 07:15:18;;;;;;;6.88;2.20;;;15.80;87.60;;;;;;5006634;28;20547;-73
2023/08/02 07:17:45;;;;;;;6.65;2.40;;;15.80;87.60;;;;;;5007117;28;20051;-73
2023/08/02 07:20:14;;;;;;;7.32;2.60;;;15.80;87.50;;;;;;5007239;28;20054;-73
2023/08/02 07:22:44;;;;;;;7.37;2.43;;;15.90;87.50;;;;;;5006801;28;20057;-74
2023/08/02 07:25:11;;;;;;;6.85;2.65;;;15.90;87.40;;;;;;5005725;28;20270;-73
2023/08/02 07:27:39;;;;;;;8.70;2.63;;;15.90;87.30;;;;;;5007965;28;20436;-73
2023/08/02 07:30:07;;;;;;;10.30;2.85;;;15.80;87.30;;;;;;5005863;28;20054;-73
2023/08/02 07:32:34;;;;;;;7.40;2.85;;;15.90;87.40;;;;;;5002750;28;20042;-73
2023/08/02 07:35:01;;;;;;;7.20;2.80;;;15.90;87.40;;;;;;5004377;28;20046;-73
2023/08/02 07:37:30;;;;;;;7.65;2.70;;;15.90;87.50;;;;;;5007089;28;20340;-73
2023/08/02 07:39:57;;;;;;;9.93;3.17;;;16.00;87.50;;;;;;5007945;28;20062;-73
2023/08/02 07:42:24;;;;;;;7.63;2.60;;;15.90;87.50;;;;;;5003497;28;20042;-73
2023/08/02 07:45:05;;;;;;;7.57;2.65;;;16.00;87.50;;;;;;5006472;28;20140;-73
2023/08/02 07:47:33;;;;;;;7.77;2.83;;;16.00;87.60;;;;;;5005927;28;20578;-73
2023/08/02 07:50:00;;;;;;;7.13;2.72;;;16.00;87.60;;;;;;5006710;28;20794;-73
2023/08/02 07:52:27;;;;;;;6.68;2.67;;;16.00;87.60;;;;;;5002168;28;20971;-73
2023/08/02 07:54:56;;;;;;;8.10;2.88;;;16.00;87.60;;;;;;5003962;28;20046;-73
2023/08/02 07:57:25;;;;;;;7.15;2.30;;;16.00;87.70;;;;;;5005892;28;20057;-73
2023/08/02 07:59:52;;;;;;;8.10;2.60;;;16.00;87.70;;;;;;5006436;28;20077;-73
2023/08/02 08:02:20;;;;;;;6.72;2.70;;;16.00;87.70;;;;;;5005094;28;20254;-73
2023/08/02 08:04:47;;;;;;;5.75;2.42;;;16.00;87.80;;;;;;5006286;28;20125;-73
2023/08/02 08:07:14;;;;;;;7.25;2.42;;;16.00;87.80;;;;;;5007365;28;20042;-73
2023/08/02 08:09:41;;;;;;;6.28;2.40;;;16.00;87.80;;;;;;5008242;28;20059;-73
2023/08/02 08:12:11;;;;;;;5.30;2.27;;;16.00;87.80;;;;;;5006248;28;20057;-73
2023/08/02 08:14:38;;;;;;;6.68;2.53;;;16.00;87.80;;;;;;5007981;28;20259;-73
2023/08/02 08:17:05;;;;;;;7.70;2.83;;;16.00;87.90;;;;;;5006901;28;20042;-73
2023/08/02 08:19:34;;;;;;;7.60;2.60;;;16.00;87.90;;;;;;5009671;28;20054;-72
2023/08/02 08:22:01;;;;;;;7.88;2.35;;;16.00;87.90;;;;;;5006805;28;20081;-74
2023/08/02 08:24:28;;;;;;;7.80;2.90;;;16.00;87.90;;;;;;5006465;28;20065;-73
2023/08/02 08:26:55;;;;;;;9.30;3.00;;;16.00;87.90;;;;;;5007103;28;20282;-74
2023/08/02 08:29:24;;;;;;;6.40;2.55;;;16.00;88.00;;;;;;5005300;28;20050;-74
2023/08/02 08:31:51;;;;;;;14.48;2.70;;;16.00;88.00;;;;;;5001786;28;20047;-74
2023/08/02 08:34:17;;;;;;;6.63;2.72;;;16.00;88.00;;;;;;5005363;28;20556;-74
2023/08/02 08:36:45;;;;;;;8.17;2.80;;;16.00;88.10;;;;;;5005584;28;20051;-74
2023/08/02 08:39:12;;;;;;;6.28;2.47;;;16.00;88.10;;;;;;5008591;28;20385;-75
2023/08/02 08:41:39;;;;;;;6.72;2.35;;;16.00;88.00;;;;;;5005052;28;20157;-75
2023/08/02 08:44:06;;;;;;;7.75;2.47;;;16.00;88.00;;;;;;5004561;28;20515;-74
2023/08/02 08:46:35;;;;;;;5.43;2.53;;;16.00;88.00;;;;;;5009707;28;20077;-73
2023/08/02 08:49:03;;;;;;;6.37;2.40;;;16.00;88.10;;;;;;5007747;28;20473;-73
2023/08/02 08:51:34;;;;;;;10.07;2.55;;;16.00;88.20;;;;;;5006213;28;20282;-73
2023/08/02 08:54:06;;;;;;;6.00;2.60;;;16.00;88.30;;;;;;5007977;28;21029;-73
2023/08/02 08:56:36;;;;;;;7.15;3.00;;;16.00;88.40;;;;;;5005566;28;20512;-73
2023/08/02 08:59:05;;;;;;;7.97;3.00;;;16.00;88.30;;;;;;5007076;28;20117;-73
2023/08/02 09:01:33;;;;;;;8.67;2.60;;;16.00;88.40;;;;;;5006584;28;20039;-73
2023/08/02 09:04:02;;;;;;;9.90;2.75;;;16.00;88.40;;;;;;5007546;28;20293;-74
2023/08/02 09:06:30;;;;;;;7.93;2.72;;;16.10;88.50;;;;;;5004632;28;20153;-73
2023/08/02 09:08:57;;;;;;;7.70;2.72;;;16.10;88.50;;;;;;5008400;28;20053;-73
2023/08/02 09:11:24;;;;;;;8.88;3.00;;;16.00;88.30;;;;;;5009316;28;20501;-73
2023/08/02 09:14:09;;;;;;;7.23;3.00;;;16.10;88.50;;;;;;5013481;28;20531;-73
2023/08/02 09:16:39;;;;;;;8.15;3.17;;;16.10;88.50;;;;;;5008852;28;20262;-73
2023/08/02 09:19:22;;;;;;;7.90;3.28;;;16.10;88.50;;;;;;5010291;28;20061;-73
2023/08/02 09:22:06;;;;;;;7.47;3.17;;;16.10;88.50;;;;;;5000746;28;20051;-75
2023/08/02 09:24:34;;;;;;;6.63;2.92;;;16.10;88.60;;;;;;5005299;28;20173;-76
2023/08/02 09:27:02;;;;;;;7.93;3.03;;;16.10;88.80;;;;;;5010539;28;20054;-76
2023/08/02 09:29:46;;;;;;;6.53;3.47;;;16.10;88.90;;;;;;5012786;28;20316;-76
2023/08/02 09:32:13;;;;;;;8.15;2.97;;;16.20;89.00;;;;;;5008388;28;20078;-76
2023/08/02 09:34:46;;;;;;;6.22;3.45;;;16.20;89.20;;;;;;5007831;28;20112;-76
2023/08/02 09:37:14;;;;;;;8.00;3.67;;;16.20;89.40;;;;;;5007368;28;20077;-76
2023/08/02 09:39:49;;;;;;;8.33;4.00;;;16.20;89.40;;;;;;5008139;28;20443;-77
2023/08/02 09:42:17;;;;;;;7.38;3.72;;;16.30;89.30;;;;;;5008603;28;20262;-76
2023/08/02 09:44:52;;;;;;;7.82;3.53;;;16.40;89.50;;;;;;5003825;28;20138;-76
2023/08/02 09:47:20;;;;;;;7.15;3.70;;;16.40;89.50;;;;;;5006113;28;20046;-76
2023/08/02 09:50:03;;;;;;;5.80;2.97;;;16.40;89.40;;;;;;5000029;28;20055;-76
2023/08/02 09:52:30;;;;;;;5.90;3.00;;;16.40;89.30;;;;;;5001457;28;20082;-76
2023/08/02 09:54:58;;;;;;;5.95;3.35;;;16.40;89.50;;;;;;5007163;28;20262;-75
2023/08/02 09:57:27;;;;;;;7.22;3.03;;;16.40;89.50;;;;;;4990497;28;21048;-75
2023/08/02 09:59:55;;;;;;;6.43;3.22;;;16.40;89.60;;;;;;5002645;28;20054;-75
2023/08/02 10:02:25;;;;;;;5.55;2.85;;;16.40;89.60;;;;;;5007523;28;20056;-75
2023/08/02 10:04:56;;;;;;;5.77;2.70;;;16.50;89.70;;;;;;5009726;28;20074;-76
2023/08/02 10:07:28;;;;;;;6.68;2.75;;;16.50;89.60;;;;;;5009056;28;20364;-75
2023/08/02 10:10:00;;;;;;;4.63;2.40;;;16.50;89.60;;;;;;4996115;28;20058;-76
2023/08/02 10:12:28;;;;;;;4.50;2.53;;;16.50;89.70;;;;;;5006086;28;20050;-76
2023/08/02 10:14:57;;;;;;;5.55;2.47;;;16.50;89.70;;;;;;5002786;28;20054;-76
2023/08/02 10:17:25;;;;;;;5.03;2.10;;;16.50;89.80;;;;;;4996879;28;20540;-76
2023/08/02 10:19:53;;;;;;;4.53;2.20;;;16.50;89.70;;;;;;4997721;28;20254;-76
2023/08/02 10:22:22;;;;;;;5.05;2.22;;;16.50;89.80;;;;;;5008113;28;20554;-76
2023/08/02 10:24:50;;;;;;;5.72;1.90;;;16.60;89.80;;;;;;5025539;28;20043;-77
2023/08/02 10:27:17;;;;;;;3.67;1.70;;;16.60;89.80;;;;;;5008541;28;20057;-76
2023/08/02 10:29:45;;;;;;;4.00;1.77;;;16.60;89.90;;;;;;5006084;28;20243;-75
2023/08/02 10:32:13;;;;;;;3.70;1.55;;;16.60;90.00;;;;;;5015984;28;20287;-76
2023/08/02 10:37:55;;;;;;;3.28;1.33;;;16.60;89.90;;;;;;5123689;27;20125;-76
2023/08/02 10:40:25;;;;;;;3.85;1.40;;;16.60;90.10;;;;;;5125070;27;20047;-76
2023/08/02 10:43:06;;;;;;;4.00;1.40;;;16.70;90.10;;;;;;5131542;27;20048;-76
2023/08/02 10:45:34;;;;;;;2.80;1.10;;;16.70;90.10;;;;;;5129816;27;20051;-75
2023/08/02 10:48:23;;;;;;;3.75;1.63;;;16.70;90.00;;;;;;5118186;27;20278;-76
2023/08/02 10:50:50;;;;;;;3.20;1.30;;;16.70;89.90;;;;;;5152899;27;20055;-76
2023/08/02 10:53:18;;;;;;;3.50;1.30;;;16.70;89.80;;;;;;5121550;27;20039;-75
2023/08/02 10:56:06;;;;;;;3.33;1.00;;;16.70;89.90;;;;;;5125904;27;20129;-76
2023/08/02 10:58:47;;;;;;;4.40;1.20;;;16.70;90.00;;;;;;5122176;27;20082;-75
2023/08/02 11:01:14;;;;;;;2.88;1.17;;;16.70;90.00;;;;;;5157188;27;20242;-75
2023/08/02 11:03:41;;;;;;;2.88;1.00;;;16.70;90.00;;;;;;5123197;27;20499;-76
2023/08/02 11:06:08;;;;;;;4.25;1.17;;;16.70;90.20;;;;;;5124748;27;20071;-76
2023/08/02 11:08:47;;;;;;;2.72;1.08;;;16.70;90.00;;;;;;5148820;27;20068;-77
2023/08/02 11:11:14;;;;;;;2.80;1.10;;;16.70;90.10;;;;;;5123411;27;20147;-77
2023/08/02 11:13:42;;;;;;;2.92;1.08;;;16.70;90.10;;;;;;5123725;27;20724;-77
2023/08/02 11:16:09;;;;;;;2.92;1.00;;;16.70;90.10;;;;;;5124826;27;20052;-76
2023/08/02 11:18:37;;;;;;;2.88;0.88;;;16.70;90.20;;;;;;5126044;27;20040;-77
2023/08/02 11:21:09;;;;;;;2.60;0.70;;;16.70;90.20;;;;;;5124289;27;20923;-77
2023/08/02 11:23:36;;;;;;;2.80;0.80;;;16.80;90.40;;;;;;5123634;27;20154;-77
2023/08/02 11:26:10;;;;;;;2.60;0.80;;;16.80;90.40;;;;;;5153197;27;20368;-77
2023/08/02 11:28:42;;;;;;;2.60;0.70;;;16.80;90.60;;;;;;5122681;27;20063;-77
2023/08/02 11:31:09;;;;;;;3.15;0.80;;;16.80;90.60;;;;;;5130093;27;20048;-77
2023/08/02 11:33:37;;;;;;;2.40;0.80;;;16.90;90.70;;;;;;5149018;27;20043;-77
2023/08/02 11:36:04;;;;;;;3.13;0.90;;;16.90;90.80;;;;;;5127460;27;20109;-77
2023/08/02 11:38:31;;;;;;;3.10;1.08;;;17.00;90.90;;;;;;5132119;27;20290;-76
2023/08/02 11:40:59;;;;;;;2.90;1.00;;;17.00;91.10;;;;;;5122739;27;20048;-76
2023/08/02 11:43:37;;;;;;;2.85;1.10;;;17.00;91.20;;;;;;5122275;27;20136;-77
2023/08/02 11:46:13;;;;;;;3.15;0.90;;;17.10;91.40;;;;;;5125868;27;20059;-76
2023/08/02 11:48:40;;;;;;;2.80;1.00;;;17.20;91.60;;;;;;5118111;27;20055;-77
2023/08/02 11:51:09;;;;;;;3.00;1.40;;;17.20;91.60;;;;;;5114501;27;20277;-76
2023/08/02 11:53:36;;;;;;;3.03;1.10;;;17.30;91.80;;;;;;5112761;27;20048;-77
2023/08/02 11:56:03;;;;;;;3.45;1.60;;;17.40;91.80;;;;;;5101264;28;20528;-77
2023/08/02 11:58:32;;;;;;;3.65;1.40;;;17.50;91.90;;;;;;5107937;28;20048;-78
2023/08/02 12:01:00;;;;;;;3.27;1.43;;;17.50;91.90;;;;;;5106430;27;20080;-76
2023/08/02 12:03:27;;;;;;;3.38;1.60;;;17.50;91.90;;;;;;5114457;27;20284;-77
2023/08/02 12:06:00;;;;;;;4.10;2.00;;;17.60;91.80;;;;;;5115668;27;20060;-77
2023/08/02 12:08:27;;;;;;;4.03;1.90;;;17.70;92.00;;;;;;5112496;27;20056;-76
2023/08/02 12:10:54;;;;;;;3.80;2.15;;;17.80;92.10;;;;;;5108484;28;20055;-77
2023/08/02 12:13:22;;;;;;;4.87;2.47;;;17.80;92.00;;;;;;5106697;28;20051;-77
2023/08/02 12:16:06;;;;;;;4.30;2.67;;;17.90;92.30;;;;;;5110019;27;20308;-77
2023/08/02 12:18:33;;;;;;;5.53;3.08;;;18.00;92.50;;;;;;5107334;28;20490;-77
2023/08/02 12:21:15;;;;;;;4.65;2.80;;;18.10;92.40;;;;;;5109854;27;20514;-76
2023/08/02 12:23:42;;;;;;;4.53;2.67;;;18.10;92.10;;;;;;5106731;27;20710;-77
2023/08/02 12:26:09;;;;;;;4.80;2.50;;;18.20;92.00;;;;;;5130460;27;20048;-77
2023/08/02 12:28:44;;;;;;;5.22;2.97;;;18.20;91.80;;;;;;5109541;27;20271;-76
2023/08/02 12:31:12;;;;;;;4.95;2.75;;;18.30;91.80;;;;;;5108468;28;20047;-76
2023/08/02 12:33:39;;;;;;;4.70;2.60;;;18.30;91.80;;;;;;5091278;28;20098;-76
2023/08/02 12:36:07;;;;;;;4.75;3.20;;;18.40;91.70;;;;;;5139878;27;20403;-77
2023/08/02 12:38:34;;;;;;;4.87;3.07;;;18.50;91.60;;;;;;5109973;28;20056;-76
2023/08/02 12:41:03;;;;;;;4.57;2.80;;;18.50;91.50;;;;;;5106857;28;20239;-76
2023/08/02 12:43:30;;;;;;;4.63;2.85;;;18.60;91.50;;;;;;5112991;27;20071;-76
2023/08/02 12:45:57;;;;;;;6.28;3.20;;;18.70;91.60;;;;;;5117220;27;20044;-76
2023/08/02 12:48:25;;;;;;;4.85;3.20;;;18.80;91.80;;;;;;5117536;27;20051;-77
2023/08/02 12:50:52;;;;;;;4.83;3.07;;;18.90;91.90;;;;;;5109457;27;20144;-76
2023/08/02 12:53:20;;;;;;;4.88;3.10;;;19.00;91.90;;;;;;5115879;27;20274;-76
2023/08/02 12:55:47;;;;;;;5.30;2.85;;;19.20;91.90;;;;;;5100135;28;20052;-76